• Join FlightAware (Why Join?)
  • Login
  • US Flag 
05:14AM EST


 

Airport Tracker/Info


-or-


 

Live Flight TrackerFlight Track Log ✈ PVL5700 ✈ 11-May-2013 ✈ CYQX - CYYT

Flight Track Log - Related Links

Times and Time Zones

All times are in EDT time to prevent confusion due to time zone crossing. See the PVL5700 flight status page for this flight to view local times or setup timezone preferences in your user account.

Time Position Orientation Groundspeed Altitude Reporting Facility
EDT Latitude Longitude Course Direction KTS MPH feet Rate Location/Type
05:14PM 48.8500 -54.3667 136° Southeast 160 184 6,200  Level Gander Center
05:15PM 48.8167 -54.3500 162° South 170 196 8,200 1,860 Climbing Gander Center
05:16PM 48.7833 -54.3000 135° Southeast 170 196 10,000 1,380 Climbing Gander Center
05:17PM 48.7500 -54.2333 127° Southeast 190 219 11,000 480 Climbing Gander Center
05:18PM 48.7000 -54.1833 147° Southeast 240 276 11,000  Level Gander Center
05:19PM 48.6229 -54.1348 136° Southeast  Level FlightAware Approximate
05:19PM 48.6333 -54.1167 147° Southeast 260 299 11,000  Level Gander Center
05:20PM 48.5667 -54.0500 146° Southeast 270 311 11,000  Level Gander Center
05:21PM 48.5167 -53.9667 132° Southeast 270 311 11,000  Level Gander Center
05:22PM 48.4500 -53.8833 140° Southeast 280 322 11,000  Level Gander Center
05:23PM 48.3833 -53.8333 154° Southeast 280 322 11,000  Level Gander Center
05:24PM 48.3333 -53.7667 138° Southeast 280 322 11,000  Level Gander Center
05:25PM 48.2667 -53.7000 146° Southeast 280 322 11,000 -60 Level Gander Center
05:26PM 48.2000 -53.6333 146° Southeast 280 322 10,900 -60 Descending Gander Center
05:27PM 48.1333 -53.5667 146° Southeast 280 322 10,900 -120 Level Gander Center
05:28PM 48.0833 -53.5000 138° Southeast 280 322 10,700 -480 Descending Gander Center
05:29PM 48.0167 -53.4000 135° Southeast 270 311 10,000 -900 Descending Gander Center
05:30PM 47.9667 -53.3667 156° South 270 311 9,000 -1,020 Descending Gander Center
05:31PM 47.9000 -53.2667 135° Southeast 260 299 8,000 -1,020 Descending Gander Center
05:32PM 47.8333 -53.2333 161° South 260 299 7,000 -1,080 Descending Gander Center
05:33PM 47.7833 -53.1667 138° Southeast 260 299 5,900 -1,200 Descending Gander Center
05:34PM 47.7333 -53.1000 138° Southeast 260 299 4,600 -1,440 Descending Gander Center
05:35PM 47.6833 -53.0333 138° Southeast 250 288 3,100 -1,200 Descending Gander Center
05:36PM 47.6167 -52.9667 146° Southeast 230 265 2,300 -420 Descending Gander Center
05:37PM 47.6000 -52.9167 116° Southeast 180 207 2,300 -120 Level Gander Center
05:38PM 47.6000 -52.8500 90° East 190 219 2,100 -480 Descending Gander Center
05:39PM 47.6000 -52.8000 90° East 150 173 1,400 -720 Descending Gander Center
05:40PM 47.6000 -52.7500 90° East 120 138 700 -540 Descending Gander Center
05:41PM 47.6167 -52.7000 64° Northeast 110 127 400 -180 Descending Gander Center
05:42PM 47.6167 -52.6667 90° East 70 81 400  Level Gander Center